D/T METAR WX W/DIR W/SPE G/SPE TEMP DEWP
25/02/20 14:20 EGPK 251420Z 26013KT 7000 -SHRA FEW003 SCT011 BKN025 05/02 Q0991 -SHRA W (260°) 15.0mph 5°C 2°C
25/02/20 13:50 EGPK 251350Z 22014KT 9999 SCT012 SCT030 06/02 Q0991 SW (220°) 16.1mph 6°C 2°C
25/02/20 12:50 EGPK 251250Z 27012KT 9999 -SHRA SCT014 SCT040 05/03 Q0992 -SHRA W (270°) 13.8mph 5°C 3°C
25/02/20 12:20 EGPK 251220Z 24014KT 9999 SCT018 SCT048 05/02 Q0992 WSW (240°) 16.1mph 5°C 2°C
25/02/20 11:50 EGPK 251150Z 24014KT 9999 SCT018 SCT048 05/02 Q0993 WSW (240°) 16.1mph 5°C 2°C
25/02/20 11:20 EGPK 251120Z 24013KT 9999 SCT015 SCT048 05/02 Q0993 WSW (240°) 15.0mph 5°C 2°C
25/02/20 10:50 EGPK 251050Z 25017KT 9999 -RA SCT012 BKN028 06/03 Q0993 -RA WSW (250°) 19.6mph 6°C 3°C
25/02/20 10:20 EGPK 251020Z 25013KT 9999 FEW012 SCT025 05/02 Q0993 WSW (250°) 15.0mph 5°C 2°C
25/02/20 09:20 EGPK 250920Z 23009KT 9999 -RA FEW010 SCT022 04/02 Q0993 -RA SW (230°) 10.4mph 4°C 2°C
25/02/20 08:50 EGPK 250850Z 23009KT 9999 FEW012 SCT026 04/02 Q0994 SW (230°) 10.4mph 4°C 2°C
25/02/20 08:20 EGPK 250820Z 28005KT 9999 FEW015 SCT025 BKN045 03/02 Q0994 W (280°) 5.8mph 3°C 2°C
25/02/20 07:20 EGPK 250720Z 27009KT 9999 FEW015 SCT025 BKN045 03/02 Q0994 W (270°) 10.4mph 3°C 2°C
25/02/20 06:50 EGPK 250650Z 26013KT 9999 -RA FEW015 SCT025 BKN045 03/02 Q0994 -RA W (260°) 15.0mph 3°C 2°C
25/02/20 06:20 EGPK 250620Z 24015KT 9999 -RA FEW015 SCT025 BKN045 04/02 Q0994 -RA WSW (240°) 17.3mph 4°C 2°C
25/02/20 05:50 EGPK 250550Z 25012KT 9999 -RA SCT012 SCT023 04/02 Q0995 -RA WSW (250°) 13.8mph 4°C 2°C
25/02/20 04:50 EGPK 250450Z 26019KT 9000 -RA SCT010 SCT023 03/02 Q0995 -RA W (260°) 21.9mph 3°C 2°C
25/02/20 03:50 EGPK 250350Z 25009KT 9999 -RA SCT009 BKN023 04/03 Q0996 -RA WSW (250°) 10.4mph 4°C 3°C
25/02/20 02:50 EGPK 250250Z 30006KT 9999 -RA FEW014 SCT021 BKN037 04/02 Q0997 -RA WNW (300°) 6.9mph 4°C 2°C
25/02/20 01:50 EGPK 250150Z 24014KT 9999 -RA FEW013 SCT021 BKN027 04/02 Q0997 -RA WSW (240°) 16.1mph 4°C 2°C
25/02/20 00:50 EGPK 250050Z 25011KT 9999 FEW013 SCT021 BKN027 05/02 Q0998 WSW (250°) 12.7mph 5°C 2°C
24/02/20 23:50 EGPK 242350Z 26013KT 9999 FEW013 BKN023 05/02 Q0997 W (260°) 15.0mph 5°C 2°C
24/02/20 23:20 EGPK 242320Z 25013KT 9999 -RA FEW013 BKN023 05/02 Q0997 -RA WSW (250°) 15.0mph 5°C 2°C
24/02/20 22:50 EGPK 242250Z 24010KT 9999 FEW013 BKN023 05/02 Q0998 WSW (240°) 11.5mph 5°C 2°C
24/02/20 22:20 EGPK 242220Z 25008KT 9999 FEW015 BKN023 BKN031 05/02 Q0998 WSW (250°) 9.2mph 5°C 2°C
24/02/20 21:50 EGPK 242150Z 26010KT 9999 FEW020 BKN027 05/02 Q0998 W (260°) 11.5mph 5°C 2°C
24/02/20 20:50 EGPK 242050Z 29013KT 9999 FEW012 BKN024 05/02 Q0998 WNW (290°) 15.0mph 5°C 2°C
24/02/20 20:20 EGPK 242020Z 29013KT 9999 FEW012 BKN024 05/02 Q0998 WNW (290°) 15.0mph 5°C 2°C
24/02/20 19:50 EGPK 241950Z 26011KT 9999 FEW012 BKN024 05/02 Q0998 W (260°) 12.7mph 5°C 2°C
24/02/20 19:20 EGPK 241920Z 29014KT 9999 FEW012 BKN024 05/01 Q0998 WNW (290°) 16.1mph 5°C 1°C
24/02/20 18:50 EGPK 241850Z 29014KT 9999 FEW012 BKN024 05/01 Q0998 WNW (290°) 16.1mph 5°C 1°C
24/02/20 18:20 EGPK 241820Z 26014KT 9999 FEW012 BKN024 05/02 Q0998 W (260°) 16.1mph 5°C 2°C
24/02/20 17:50 EGPK 241750Z 25012KT 9999 BKN014 04/03 Q0997 WSW (250°) 13.8mph 4°C 3°C
24/02/20 17:20 EGPK 241720Z 28011KT 9999 BKN012 03/02 Q0996 W (280°) 12.7mph 3°C 2°C
24/02/20 16:50 EGPK 241650Z 28012KT 9999 BKN010 03/02 Q0996 W (280°) 13.8mph 3°C 2°C
24/02/20 16:20 EGPK 241620Z 27009KT 7000 -DZ SCT005 BKN010 03/03 Q0996 -DZ W (270°) 10.4mph 3°C 3°C
24/02/20 15:50 EGPK 241550Z 29007KT 3000 -DZ BKN005 03/02 Q0995 -DZ WNW (290°) 8.1mph 3°C 2°C
24/02/20 15:20 EGPK 241520Z 01007KT 3000 -DZ BKN005 04/03 Q0995 -DZ N (10°) 8.1mph 4°C 3°C
24/02/20 14:50 EGPK 241450Z 02006KT 3000 -DZ BKN005 04/03 Q0994 -DZ NNE (20°) 6.9mph 4°C 3°C
24/02/20 14:20 EGPK 241420Z 02005KT 8000 -DZ SCT008 BKN015 04/03 Q0994 -DZ NNE (20°) 5.8mph 4°C 3°C
24/02/20 13:50 EGPK 241350Z 02003KT 8000 SCT008 BKN015 04/03 Q0994 NNE (20°) 3.5mph 4°C 3°C
24/02/20 13:20 EGPK 241320Z 02005KT 7000 -RA SCT007 BKN018 04/03 Q0994 -RA NNE (20°) 5.8mph 4°C 3°C
24/02/20 12:50 EGPK 241250Z 02005KT 7000 -RA SCT007 BKN018 04/03 Q0994 -RA NNE (20°) 5.8mph 4°C 3°C
24/02/20 12:20 EGPK 241220Z 03005KT 3000 -RA SCT007 BKN012 04/03 Q0994 -RA NNE (30°) 5.8mph 4°C 3°C
24/02/20 11:50 EGPK 241150Z 03007KT 6000 -RASN BKN005 03/02 Q0994 -RA -SN NNE (30°) 8.1mph 3°C 2°C
24/02/20 11:20 EGPK 241120Z 03008KT 6000 BKN005 03/02 Q0995 NNE (30°) 9.2mph 3°C 2°C
24/02/20 10:50 EGPK 241050Z 04009KT 3500 -RASN BKN008 03/02 Q0995 -RA -SN NE (40°) 10.4mph 3°C 2°C
24/02/20 10:20 EGPK 241020Z 05008KT 4000 -RASN BKN008 03/02 Q0996 -RA -SN NE (50°) 9.2mph 3°C 2°C
24/02/20 09:50 EGPK 240950Z 07006KT 7000 -RASN FEW014 BKN022 03/01 Q0996 -RA -SN ENE (70°) 6.9mph 3°C 1°C